createdAt,value
2019-01-28T00:00:03.675Z,993.5
2019-01-28T00:01:03.314Z,993.5
2019-01-28T00:02:03.277Z,993.5
2019-01-28T00:03:03.183Z,993.6
2019-01-28T00:04:02.425Z,993.5
2019-01-28T00:05:02.477Z,993.5
2019-01-28T00:06:01.943Z,993.6
2019-01-28T00:07:03.733Z,993.5
2019-01-28T00:08:03.255Z,993.6
2019-01-28T00:09:03.513Z,993.6
2019-01-28T00:10:03.781Z,993.6
2019-01-28T00:11:03.868Z,993.6
2019-01-28T00:12:03.092Z,993.6
2019-01-28T00:13:03.633Z,993.6
2019-01-28T00:14:03.212Z,993.7
2019-01-28T00:15:03.064Z,993.7
2019-01-28T00:16:03.095Z,993.8
2019-01-28T00:17:02.788Z,993.8
2019-01-28T00:18:04.003Z,993.8
2019-01-28T00:19:03.682Z,993.8
2019-01-28T00:20:02.962Z,993.9
2019-01-28T00:21:03.249Z,993.9
2019-01-28T00:22:03.296Z,993.9
2019-01-28T00:23:02.909Z,993.9
2019-01-28T00:24:03.772Z,994
2019-01-28T00:25:03.338Z,993.9
2019-01-28T00:26:03.471Z,994
2019-01-28T00:27:02.344Z,994
2019-01-28T00:28:02.874Z,994
2019-01-28T00:29:02.893Z,994
2019-01-28T00:30:03.195Z,994.1
2019-01-28T00:31:03.286Z,994.1
2019-01-28T00:32:03.452Z,994.1
2019-01-28T00:33:03.274Z,994.1
2019-01-28T00:34:03.496Z,994
2019-01-28T00:35:02.888Z,994.1
2019-01-28T00:36:03.253Z,994.1
2019-01-28T00:37:02.981Z,994.1
2019-01-28T00:38:03.170Z,994.2
2019-01-28T00:39:03.435Z,994.2
2019-01-28T00:40:03.114Z,994.2
2019-01-28T00:41:03.157Z,994.3
2019-01-28T00:42:03.077Z,994.4
2019-01-28T00:43:03.103Z,994.4
2019-01-28T00:44:03.635Z,994.3
2019-01-28T00:45:03.922Z,994.5
2019-01-28T00:46:03.308Z,994.5
2019-01-28T00:47:02.961Z,994.5
2019-01-28T00:48:03.079Z,994.5
2019-01-28T00:49:03.793Z,994.5
2019-01-28T00:50:03.528Z,994.4
2019-01-28T00:51:03.635Z,994.4
2019-01-28T00:52:03.268Z,994.4
2019-01-28T00:53:02.916Z,994.4
2019-01-28T00:54:03.647Z,994.5
2019-01-28T00:55:03.549Z,994.5
2019-01-28T00:56:03.087Z,994.5
2019-01-28T00:57:02.119Z,994.5
2019-01-28T00:58:03.618Z,994.5
2019-01-28T00:59:03.804Z,994.5
2019-01-28T01:00:03.421Z,994.6
2019-01-28T01:01:03.146Z,994.6
2019-01-28T01:02:03.244Z,994.8
2019-01-28T01:03:03.922Z,994.8
2019-01-28T01:04:03.251Z,994.8
2019-01-28T01:05:03.779Z,994.9
2019-01-28T01:06:03.176Z,994.9
2019-01-28T01:07:03.742Z,994.9
2019-01-28T01:08:02.975Z,994.8
2019-01-28T01:09:03.540Z,994.8
2019-01-28T01:10:02.850Z,995
2019-01-28T01:11:03.293Z,994.9
2019-01-28T01:12:04.114Z,994.9
2019-01-28T01:13:03.356Z,995
2019-01-28T01:14:03.876Z,994.9
2019-01-28T01:15:03.161Z,994.9
2019-01-28T01:16:03.705Z,995.1
2019-01-28T01:17:02.954Z,995
2019-01-28T01:18:03.273Z,995.2
2019-01-28T01:19:03.572Z,995.2
2019-01-28T01:20:03.076Z,995.2
2019-01-28T01:21:03.167Z,995.2
2019-01-28T01:22:03.022Z,995.4
2019-01-28T01:23:03.759Z,995.3
2019-01-28T01:24:03.915Z,995.3
2019-01-28T01:25:03.673Z,995.4
2019-01-28T01:26:03.690Z,995.4
2019-01-28T01:27:03.736Z,995.4
2019-01-28T01:28:03.744Z,995.4
2019-01-28T01:29:03.124Z,995.6
2019-01-28T01:30:03.791Z,995.7
2019-01-28T01:31:02.871Z,995.6
2019-01-28T01:32:03.071Z,995.6
2019-01-28T01:33:02.806Z,995.6
2019-01-28T01:34:03.216Z,995.7
2019-01-28T01:35:02.667Z,995.8
2019-01-28T01:36:03.476Z,995.7
2019-01-28T01:37:03.045Z,995.8
2019-01-28T01:38:03.461Z,995.9
2019-01-28T01:39:03.805Z,996
2019-01-28T01:40:03.639Z,996
2019-01-28T01:41:03.179Z,996
2019-01-28T01:42:03.414Z,996.1
2019-01-28T01:43:03.777Z,996
2019-01-28T01:44:03.358Z,996.1
2019-01-28T01:45:03.848Z,996.1
2019-01-28T01:46:03.111Z,996.2
2019-01-28T01:47:03.601Z,996.1
2019-01-28T01:48:03.178Z,996.2
2019-01-28T01:49:02.937Z,996.2
2019-01-28T01:50:03.013Z,996.2
2019-01-28T01:51:03.462Z,996.2
2019-01-28T01:52:03.176Z,996.2
2019-01-28T01:53:03.668Z,996.3
2019-01-28T01:54:03.771Z,996.3
2019-01-28T01:55:03.409Z,996.3
2019-01-28T01:56:03.903Z,996.3
2019-01-28T01:57:03.569Z,996.3
2019-01-28T01:58:03.743Z,996.4
2019-01-28T01:59:03.567Z,996.4
2019-01-28T02:00:03.438Z,996.3
2019-01-28T02:01:03.353Z,996.4
2019-01-28T02:02:03.649Z,996.5
2019-01-28T02:03:02.650Z,996.5
2019-01-28T02:04:03.358Z,996.5
2019-01-28T02:05:02.944Z,996.5
2019-01-28T02:06:03.607Z,996.5
2019-01-28T02:07:03.032Z,996.6
2019-01-28T02:08:03.307Z,996.6
2019-01-28T02:09:03.629Z,996.7
2019-01-28T02:10:03.456Z,996.5
2019-01-28T02:11:03.704Z,996.5
2019-01-28T02:12:03.201Z,996.7
2019-01-28T02:13:04.175Z,996.6
2019-01-28T02:14:03.047Z,996.7
2019-01-28T02:15:03.775Z,996.7
2019-01-28T02:16:03.104Z,996.7
2019-01-28T02:17:03.737Z,996.7
2019-01-28T02:18:02.935Z,996.6
2019-01-28T02:19:03.320Z,996.8
2019-01-28T02:20:03.951Z,996.7
2019-01-28T02:21:03.163Z,996.7
2019-01-28T02:22:02.930Z,996.7
2019-01-28T02:23:03.091Z,996.8
2019-01-28T02:24:03.256Z,996.8
2019-01-28T02:25:03.409Z,996.8
2019-01-28T02:26:03.702Z,996.8
2019-01-28T02:27:03.222Z,996.8
2019-01-28T02:28:03.910Z,996.8
2019-01-28T02:29:02.916Z,996.9
2019-01-28T02:30:04.252Z,996.9
2019-01-28T02:31:03.013Z,996.8
2019-01-28T02:32:03.698Z,997
2019-01-28T02:33:03.229Z,997
2019-01-28T02:34:03.420Z,997
2019-01-28T02:35:03.373Z,997
2019-01-28T02:36:03.974Z,997
2019-01-28T02:37:03.176Z,997
2019-01-28T02:38:03.559Z,997
2019-01-28T02:39:03.213Z,997.2
2019-01-28T02:40:03.441Z,997.2
2019-01-28T02:41:03.082Z,997.2
2019-01-28T02:42:03.347Z,997.1
2019-01-28T02:43:02.969Z,997.1
2019-01-28T02:44:03.743Z,997.2
2019-01-28T02:45:03.244Z,997.1
2019-01-28T02:46:03.443Z,997.1
2019-01-28T02:47:03.599Z,997.1
2019-01-28T02:48:03.407Z,997.2
2019-01-28T02:49:04.028Z,997.1
2019-01-28T02:50:03.382Z,997.1
2019-01-28T02:51:03.659Z,997.2
2019-01-28T02:52:03.162Z,997.3
2019-01-28T02:53:03.652Z,997.2
2019-01-28T02:54:03.164Z,997.3
2019-01-28T02:55:03.644Z,997.3
2019-01-28T02:56:03.161Z,997.2
2019-01-28T02:57:03.678Z,997.3
2019-01-28T02:58:03.591Z,997.3
2019-01-28T02:59:03.086Z,997
2019-01-28T03:00:03.119Z,997.3
2019-01-28T03:01:03.546Z,997.3
2019-01-28T03:02:03.202Z,997.2
2019-01-28T03:03:03.252Z,997.2
2019-01-28T03:04:03.614Z,997.3
2019-01-28T03:05:03.199Z,997.3
2019-01-28T03:06:02.889Z,997.3
2019-01-28T03:07:03.076Z,997.3
2019-01-28T03:08:03.145Z,997.3
2019-01-28T03:09:02.988Z,997.3
2019-01-28T03:10:03.709Z,997.3
2019-01-28T03:11:03.219Z,997.3
2019-01-28T03:12:02.962Z,997.5
2019-01-28T03:13:03.399Z,997.3
2019-01-28T03:14:03.300Z,997.3
2019-01-28T03:15:03.618Z,997.3
2019-01-28T03:16:03.304Z,997.3
2019-01-28T03:17:03.609Z,997.3
2019-01-28T03:18:03.366Z,997.3
2019-01-28T03:19:03.044Z,997.2
2019-01-28T03:20:03.493Z,997.3
2019-01-28T03:21:02.913Z,997.3
2019-01-28T03:22:03.457Z,997.3
2019-01-28T03:23:03.880Z,997.3
2019-01-28T03:24:03.406Z,997.3
2019-01-28T03:25:03.613Z,997.3
2019-01-28T03:26:02.818Z,997.4
2019-01-28T03:27:03.227Z,997.3
2019-01-28T03:28:03.015Z,997.4
2019-01-28T03:29:03.856Z,997.3
2019-01-28T03:30:03.596Z,997.3
2019-01-28T03:31:03.089Z,997.4
2019-01-28T03:32:03.507Z,997.4
2019-01-28T03:33:03.418Z,997.3
2019-01-28T03:34:03.755Z,997.3
2019-01-28T03:35:03.182Z,997.4
2019-01-28T03:36:03.536Z,997.4
2019-01-28T03:37:03.749Z,997.5
2019-01-28T03:38:02.964Z,997.5
2019-01-28T03:39:03.339Z,997.4
2019-01-28T03:40:03.379Z,997.4
2019-01-28T03:41:03.004Z,997.4
2019-01-28T03:42:03.780Z,997.5
2019-01-28T03:43:03.453Z,997.5
2019-01-28T03:44:03.637Z,997.4
2019-01-28T03:45:03.537Z,997.6
2019-01-28T03:46:03.548Z,997.4
2019-01-28T03:47:03.671Z,997.4
2019-01-28T03:48:03.257Z,997.5
2019-01-28T03:49:03.850Z,997.4
2019-01-28T03:50:03.388Z,997.4
2019-01-28T03:51:03.626Z,997.6
2019-01-28T03:52:03.201Z,997.5
2019-01-28T03:53:03.626Z,997.5
2019-01-28T03:54:03.507Z,997.5
2019-01-28T03:55:03.142Z,997.4
2019-01-28T03:56:03.567Z,997.5
2019-01-28T03:57:03.722Z,997.5
2019-01-28T03:58:04.980Z,997.5
2019-01-28T03:59:03.627Z,997.6
2019-01-28T04:00:02.786Z,997.5
2019-01-28T04:01:03.427Z,997.5
2019-01-28T04:02:03.555Z,997.6
2019-01-28T04:03:03.312Z,997.6
2019-01-28T04:04:03.578Z,997.6
2019-01-28T04:05:03.576Z,997.5
2019-01-28T04:06:02.969Z,997.5
2019-01-28T04:07:02.947Z,997.5
2019-01-28T04:08:03.952Z,997.5
2019-01-28T04:09:02.642Z,997.6
2019-01-28T04:10:03.249Z,997.6
2019-01-28T04:11:03.178Z,997.6
2019-01-28T04:12:03.098Z,997.5
2019-01-28T04:13:02.774Z,997.6
2019-01-28T04:14:03.627Z,997.6
2019-01-28T04:15:03.417Z,997.6
2019-01-28T04:16:02.915Z,997.5
2019-01-28T04:17:03.035Z,997.6
2019-01-28T04:18:03.820Z,997.6
2019-01-28T04:19:03.559Z,997.5
2019-01-28T04:20:02.963Z,997.6
2019-01-28T04:21:03.080Z,997.6
2019-01-28T04:22:03.335Z,997.4
2019-01-28T04:23:03.662Z,997.4
2019-01-28T04:24:03.450Z,997.3
2019-01-28T04:25:03.896Z,997.4
2019-01-28T04:26:03.702Z,997.5
2019-01-28T04:27:02.976Z,997.4
2019-01-28T04:28:03.418Z,997.4
2019-01-28T04:29:03.052Z,997.3
2019-01-28T04:30:02.917Z,997.4
2019-01-28T04:31:03.036Z,997.4
2019-01-28T04:32:02.946Z,997.4
2019-01-28T04:33:03.435Z,997.4
2019-01-28T04:34:03.659Z,997.4
2019-01-28T04:35:03.471Z,997.4
2019-01-28T04:36:03.522Z,997.4
2019-01-28T04:37:03.195Z,997.4
2019-01-28T04:38:02.600Z,997.4
2019-01-28T04:39:03.226Z,997.4
2019-01-28T04:40:03.149Z,997.4
2019-01-28T04:41:03.151Z,997.3
2019-01-28T04:42:03.562Z,997.3
2019-01-28T04:43:03.588Z,997.3
2019-01-28T04:44:02.956Z,997.3
2019-01-28T04:45:04.024Z,997.3
2019-01-28T04:46:03.018Z,997.3
2019-01-28T04:47:03.695Z,997.3
2019-01-28T04:48:03.424Z,997.3
2019-01-28T04:49:03.332Z,997.3
2019-01-28T04:50:02.960Z,997.5
2019-01-28T04:51:03.200Z,997.3
2019-01-28T04:52:03.542Z,997.4
2019-01-28T04:53:03.570Z,997.4
2019-01-28T04:54:03.454Z,997.3
2019-01-28T04:55:03.397Z,997.5
2019-01-28T04:56:03.191Z,997.5
2019-01-28T04:57:02.844Z,997.4
2019-01-28T04:58:04.100Z,997.4
2019-01-28T04:59:03.311Z,997.4
2019-01-28T05:00:03.180Z,997.4
2019-01-28T05:01:03.229Z,997.3
2019-01-28T05:02:03.161Z,997.4
2019-01-28T05:03:03.789Z,997.3
2019-01-28T05:04:03.285Z,997.5
2019-01-28T05:05:03.048Z,997.4
2019-01-28T05:06:02.839Z,997.4
2019-01-28T05:07:03.526Z,997.4
2019-01-28T05:08:03.792Z,997.3
2019-01-28T05:09:03.522Z,997.4
2019-01-28T05:10:03.942Z,997.3
2019-01-28T05:11:02.897Z,997.4
2019-01-28T05:12:03.223Z,997.4
2019-01-28T05:13:05.228Z,997.5
2019-01-28T05:14:03.396Z,997.5
2019-01-28T05:15:03.563Z,997.5
2019-01-28T05:16:03.185Z,997.5
2019-01-28T05:17:03.676Z,997.6
2019-01-28T05:18:03.841Z,997.5
2019-01-28T05:19:02.993Z,997.5
2019-01-28T05:20:02.763Z,997.5
2019-01-28T05:21:02.889Z,997.6
2019-01-28T05:22:03.306Z,997.5
2019-01-28T05:23:03.471Z,997.5
2019-01-28T05:24:03.610Z,997.6
2019-01-28T05:25:02.824Z,997.6
2019-01-28T05:26:03.147Z,997.6
2019-01-28T05:27:03.019Z,997.6
2019-01-28T05:28:03.651Z,997.6
2019-01-28T05:29:03.015Z,997.6
2019-01-28T05:30:03.158Z,997.6
2019-01-28T05:31:03.728Z,997.6
2019-01-28T05:32:02.817Z,997.7
2019-01-28T05:33:03.591Z,997.7
2019-01-28T05:34:02.825Z,997.7
2019-01-28T05:35:03.113Z,997.6
2019-01-28T05:36:03.689Z,997.6
2019-01-28T05:37:03.419Z,997.5
2019-01-28T05:38:02.794Z,997.7
2019-01-28T05:39:03.214Z,997.6
2019-01-28T05:40:03.250Z,997.6
2019-01-28T05:41:03.301Z,997.6
2019-01-28T05:42:03.487Z,997.6
2019-01-28T05:43:03.516Z,997.5
2019-01-28T05:44:03.559Z,997.6
2019-01-28T05:45:04.648Z,997.6
2019-01-28T05:47:03.964Z,997.6
2019-01-28T05:47:05.149Z,997.7
2019-01-28T05:48:09.791Z,997.6
2019-01-28T05:49:04.631Z,997.5
2019-01-28T05:50:03.890Z,997.5
2019-01-28T05:51:03.179Z,997.7
2019-01-28T05:52:03.316Z,997.6
2019-01-28T05:53:02.987Z,997.6
2019-01-28T05:54:03.059Z,997.7
2019-01-28T05:55:03.545Z,997.6
2019-01-28T05:56:03.287Z,997.6
2019-01-28T05:57:03.650Z,997.6
2019-01-28T05:58:03.586Z,997.6
2019-01-28T05:59:03.512Z,997.5
2019-01-28T06:00:03.726Z,997.6
2019-01-28T06:01:03.597Z,997.6
2019-01-28T06:02:03.153Z,997.7
2019-01-28T06:03:03.299Z,997.6
2019-01-28T06:04:03.285Z,997.6
2019-01-28T06:05:03.901Z,997.7
2019-01-28T06:06:03.715Z,997.6
2019-01-28T06:07:03.805Z,997.5
2019-01-28T06:08:05.631Z,997.5
2019-01-28T06:09:03.287Z,997.5
2019-01-28T06:10:03.846Z,997.6
2019-01-28T06:11:03.171Z,997.6
2019-01-28T06:12:03.798Z,997.6
2019-01-28T06:13:02.801Z,997.6
2019-01-28T06:14:03.082Z,997.6
2019-01-28T06:15:03.479Z,997.6
2019-01-28T06:16:03.755Z,997.6
2019-01-28T06:17:03.352Z,997.6
2019-01-28T06:18:03.630Z,997.7
2019-01-28T06:19:02.890Z,997.7
2019-01-28T06:20:03.271Z,997.6
2019-01-28T06:21:05.029Z,997.7
2019-01-28T06:22:03.550Z,997.7
2019-01-28T06:23:03.028Z,997.7
2019-01-28T06:24:03.298Z,997.6
2019-01-28T06:25:03.002Z,997.7
2019-01-28T06:26:03.107Z,997.7
2019-01-28T06:27:03.794Z,997.7
2019-01-28T06:28:03.150Z,997.7
2019-01-28T06:29:03.115Z,997.7
2019-01-28T06:30:03.255Z,997.7
2019-01-28T06:31:03.260Z,997.7
2019-01-28T06:32:03.278Z,997.6
2019-01-28T06:33:03.109Z,997.7
2019-01-28T06:34:03.568Z,997.7
2019-01-28T06:35:03.192Z,997.7
2019-01-28T06:36:02.944Z,997.6
2019-01-28T06:37:03.012Z,997.7
2019-01-28T06:38:03.721Z,997.9
2019-01-28T06:39:03.863Z,997.9
2019-01-28T06:40:03.057Z,997.8
2019-01-28T06:41:03.005Z,997.9
2019-01-28T06:42:02.959Z,997.9
2019-01-28T06:43:03.590Z,997.9
2019-01-28T06:44:03.124Z,998
2019-01-28T06:45:03.719Z,998
2019-01-28T06:46:03.808Z,997.7
2019-01-28T06:47:03.425Z,997.9
2019-01-28T06:48:03.481Z,997.9
2019-01-28T06:49:03.260Z,997.8
2019-01-28T06:50:03.674Z,997.8
2019-01-28T06:51:03.617Z,997.8
2019-01-28T06:52:02.981Z,997.8
2019-01-28T06:53:03.608Z,997.8
2019-01-28T06:54:03.246Z,997.9
2019-01-28T06:55:03.854Z,997.9
2019-01-28T06:56:03.609Z,997.8
2019-01-28T06:57:04.116Z,997.8
2019-01-28T06:58:02.834Z,997.8
2019-01-28T06:59:03.578Z,997.8
2019-01-28T07:00:03.880Z,997.8
2019-01-28T07:01:03.051Z,997.8
2019-01-28T07:02:02.857Z,997.7
2019-01-28T07:03:03.381Z,997.8
2019-01-28T07:04:03.122Z,997.7
2019-01-28T07:05:03.718Z,997.8
2019-01-28T07:06:03.837Z,997.7
2019-01-28T07:07:03.247Z,997.7
2019-01-28T07:08:03.454Z,997.7
2019-01-28T07:09:03.245Z,997.7
2019-01-28T07:10:03.438Z,997.8
2019-01-28T07:11:03.601Z,997.8
2019-01-28T07:12:03.520Z,997.8
2019-01-28T07:13:03.293Z,997.8
2019-01-28T07:14:03.495Z,997.8
2019-01-28T07:15:03.226Z,997.8
2019-01-28T07:16:03.519Z,997.8
2019-01-28T07:17:03.690Z,997.8
2019-01-28T07:18:03.374Z,997.8
2019-01-28T07:19:03.382Z,997.8
2019-01-28T07:20:03.007Z,997.8
2019-01-28T07:21:02.589Z,997.9
2019-01-28T07:22:03.366Z,997.8
2019-01-28T07:23:03.443Z,997.9
2019-01-28T07:24:02.551Z,997.8
2019-01-28T07:25:03.627Z,997.9
2019-01-28T07:26:03.348Z,997.8
2019-01-28T07:27:03.628Z,997.9
2019-01-28T07:28:03.233Z,997.9
2019-01-28T07:29:03.575Z,997.8
2019-01-28T07:30:03.663Z,997.8
2019-01-28T07:31:03.077Z,997.9
2019-01-28T07:32:03.548Z,997.8
2019-01-28T07:33:03.416Z,997.7
2019-01-28T07:34:02.825Z,997.8
2019-01-28T07:35:03.750Z,997.8
2019-01-28T07:36:02.978Z,997.8
2019-01-28T07:37:03.835Z,998
2019-01-28T07:38:03.917Z,997.9
2019-01-28T07:39:03.762Z,998
2019-01-28T07:40:03.656Z,997.9
2019-01-28T07:41:03.607Z,997.9
2019-01-28T07:42:03.486Z,997.7
2019-01-28T07:43:03.338Z,997.9
2019-01-28T07:44:03.187Z,997.8
2019-01-28T07:45:03.657Z,997.7
2019-01-28T07:46:03.823Z,997.7
2019-01-28T07:47:03.106Z,997.8
2019-01-28T07:48:03.698Z,997.8
2019-01-28T07:49:03.455Z,997.8
2019-01-28T07:50:03.457Z,997.8
2019-01-28T07:51:03.478Z,997.8
2019-01-28T07:52:03.793Z,997.8
2019-01-28T07:53:03.186Z,997.8
2019-01-28T07:54:03.737Z,997.8
2019-01-28T07:55:03.828Z,997.7
2019-01-28T07:56:03.391Z,997.7
2019-01-28T07:57:03.254Z,997.7
2019-01-28T07:58:03.269Z,997.7
2019-01-28T07:59:03.714Z,997.7
2019-01-28T08:00:03.647Z,997.7
2019-01-28T08:01:03.629Z,997.7
2019-01-28T08:02:03.513Z,997.7
2019-01-28T08:03:03.566Z,997.7
2019-01-28T08:04:03.545Z,997.8
2019-01-28T08:05:03.466Z,997.8
2019-01-28T08:06:03.521Z,997.7
2019-01-28T08:07:03.870Z,997.7
2019-01-28T08:08:02.832Z,997.8
2019-01-28T08:09:03.670Z,997.6
2019-01-28T08:10:03.978Z,997.6
2019-01-28T08:11:02.833Z,997.8
2019-01-28T08:12:01.937Z,997.7
2019-01-28T08:13:02.840Z,997.7
2019-01-28T08:14:02.993Z,997.6
2019-01-28T08:15:03.099Z,997.6
2019-01-28T08:16:03.371Z,997.7
2019-01-28T08:17:03.046Z,997.6
2019-01-28T08:18:11.413Z,997.7
2019-01-28T08:19:03.151Z,997.6
2019-01-28T08:20:03.113Z,997.7
2019-01-28T08:21:03.629Z,997.7
2019-01-28T08:22:02.648Z,997.6
2019-01-28T08:23:03.556Z,997.6
2019-01-28T08:24:03.887Z,997.7
2019-01-28T08:25:03.354Z,997.7
2019-01-28T08:26:03.355Z,997.6
2019-01-28T08:27:03.161Z,997.7
2019-01-28T08:28:03.113Z,997.6
2019-01-28T08:29:03.727Z,997.7
2019-01-28T08:30:03.210Z,997.6
2019-01-28T08:31:02.751Z,997.7
2019-01-28T08:32:03.291Z,997.6
2019-01-28T08:33:03.412Z,997.6
2019-01-28T08:34:03.344Z,997.6
2019-01-28T08:35:03.186Z,997.6
2019-01-28T08:36:02.880Z,997.6
2019-01-28T08:37:03.364Z,997.6
2019-01-28T08:38:03.459Z,997.7
2019-01-28T08:39:03.007Z,997.7
2019-01-28T08:40:03.291Z,997.6
2019-01-28T08:41:03.130Z,997.6
2019-01-28T08:42:03.211Z,997.7
2019-01-28T08:43:03.204Z,997.6
2019-01-28T08:44:03.673Z,997.6
2019-01-28T08:45:02.956Z,997.6
2019-01-28T08:46:03.137Z,997.6
2019-01-28T08:47:03.262Z,997.6
2019-01-28T08:48:03.103Z,997.5
2019-01-28T08:49:03.240Z,997.5
2019-01-28T08:50:03.181Z,997.6
2019-01-28T08:51:03.012Z,997.5
2019-01-28T08:52:03.012Z,997.5
2019-01-28T08:53:03.189Z,997.6
2019-01-28T08:54:03.178Z,997.5
2019-01-28T08:55:03.485Z,997.5
2019-01-28T08:56:03.490Z,997.6
2019-01-28T08:57:03.565Z,997.6
2019-01-28T08:58:03.378Z,997.5
2019-01-28T08:59:02.912Z,997.7
2019-01-28T09:00:03.165Z,997.7
2019-01-28T09:01:03.216Z,997.6
2019-01-28T09:02:04.332Z,997.6
2019-01-28T09:03:03.325Z,997.6
2019-01-28T09:04:03.367Z,997.7
2019-01-28T09:05:02.779Z,997.7
2019-01-28T09:06:03.742Z,997.8
2019-01-28T09:07:03.121Z,997.8
2019-01-28T09:08:03.410Z,997.7
2019-01-28T09:09:03.547Z,997.8
2019-01-28T09:10:03.520Z,997.7
2019-01-28T09:11:03.471Z,997.6
2019-01-28T09:12:02.973Z,997.6
2019-01-28T09:13:03.606Z,997.7
2019-01-28T09:14:03.187Z,997.7
2019-01-28T09:15:03.910Z,997.7
2019-01-28T09:16:03.756Z,997.7
2019-01-28T09:17:03.322Z,997.7
2019-01-28T09:18:03.625Z,997.7
2019-01-28T09:19:03.336Z,997.7
2019-01-28T09:20:03.055Z,997.6
2019-01-28T09:21:03.236Z,997.6
2019-01-28T09:22:03.248Z,997.7
2019-01-28T09:23:02.861Z,997.7
2019-01-28T09:24:03.180Z,997.8
2019-01-28T09:25:03.264Z,997.7
2019-01-28T09:26:03.263Z,997.7
2019-01-28T09:27:03.211Z,997.7
2019-01-28T09:28:03.588Z,997.7
2019-01-28T09:29:03.527Z,997.7
2019-01-28T09:30:03.415Z,997.8
2019-01-28T09:31:03.698Z,997.7
2019-01-28T09:32:03.262Z,997.7
2019-01-28T09:33:03.675Z,997.6
2019-01-28T09:34:03.063Z,997.8
2019-01-28T09:35:03.370Z,997.7
2019-01-28T09:36:03.176Z,997.8
2019-01-28T09:37:03.499Z,997.7
2019-01-28T09:38:03.508Z,997.7
2019-01-28T09:39:03.463Z,997.7
2019-01-28T09:40:04.355Z,997.7
2019-01-28T09:41:02.589Z,997.6
2019-01-28T09:42:03.601Z,997.7
2019-01-28T09:43:03.825Z,997.6
2019-01-28T09:44:03.048Z,997.7
2019-01-28T09:45:03.356Z,997.6
2019-01-28T09:46:03.273Z,997.6
2019-01-28T09:47:03.845Z,997.8
2019-01-28T09:48:03.225Z,997.7
2019-01-28T09:49:03.769Z,997.8
2019-01-28T09:50:03.336Z,997.8
2019-01-28T09:51:03.118Z,997.7
2019-01-28T09:52:03.579Z,997.7
2019-01-28T09:53:03.821Z,997.7
2019-01-28T09:54:02.921Z,997.5
2019-01-28T09:55:03.576Z,997.6
2019-01-28T09:56:03.395Z,997.6
2019-01-28T09:57:03.556Z,997.6
2019-01-28T09:58:02.864Z,997.6
2019-01-28T09:59:03.458Z,997.7
2019-01-28T10:00:03.556Z,997.6
2019-01-28T10:01:03.230Z,997.5
2019-01-28T10:02:03.666Z,997.6
2019-01-28T10:03:03.436Z,997.6
2019-01-28T10:04:03.529Z,997.5
2019-01-28T10:05:03.518Z,997.6
2019-01-28T10:06:03.080Z,997.6
2019-01-28T10:07:03.926Z,997.5
2019-01-28T10:08:03.884Z,997.5
2019-01-28T10:09:03.872Z,997.6
2019-01-28T10:10:03.691Z,997.6
2019-01-28T10:11:03.180Z,997.5
2019-01-28T10:12:03.326Z,997.4
2019-01-28T10:13:02.866Z,997.5
2019-01-28T10:14:03.028Z,997.5
2019-01-28T10:15:03.798Z,997.5
2019-01-28T10:16:02.926Z,997.5
2019-01-28T10:17:03.137Z,997.5
2019-01-28T10:18:03.044Z,997.4
2019-01-28T10:19:03.371Z,997.4
2019-01-28T10:20:03.582Z,997.5
2019-01-28T10:21:02.842Z,997.4
2019-01-28T10:22:03.141Z,997.4
2019-01-28T10:23:03.475Z,997.4
2019-01-28T10:24:02.949Z,997.4
2019-01-28T10:25:03.753Z,997.5
2019-01-28T10:26:03.553Z,997.5
2019-01-28T10:27:02.793Z,997.5
2019-01-28T10:28:03.721Z,997.5
2019-01-28T10:29:03.763Z,997.4
2019-01-28T10:30:03.910Z,997.4
2019-01-28T10:31:02.679Z,997.4
2019-01-28T10:32:03.204Z,997.4
2019-01-28T10:33:03.254Z,997.4
2019-01-28T10:34:03.556Z,997.3
2019-01-28T10:35:04.033Z,997.5
2019-01-28T10:36:03.090Z,997.6
2019-01-28T10:37:04.499Z,997.5
2019-01-28T10:38:05.548Z,997.4
2019-01-28T10:39:03.700Z,997.4
2019-01-28T10:40:03.153Z,997.3
2019-01-28T10:41:03.824Z,997.3
2019-01-28T10:42:03.897Z,997.4
2019-01-28T10:43:02.853Z,997.4
2019-01-28T10:44:10.780Z,997.4
2019-01-28T10:45:03.119Z,997.3
2019-01-28T10:46:03.014Z,997.3
2019-01-28T10:47:03.377Z,997.4
2019-01-28T10:48:03.380Z,997.3
2019-01-28T10:49:02.927Z,997.3
2019-01-28T10:50:03.309Z,997.3
2019-01-28T10:51:02.811Z,997.4
2019-01-28T10:52:03.751Z,997.4
2019-01-28T10:53:03.710Z,997.4
2019-01-28T10:54:03.717Z,997.3
2019-01-28T10:55:03.016Z,997.3
2019-01-28T10:56:03.412Z,997.4
2019-01-28T10:57:03.413Z,997.5
2019-01-28T10:58:03.568Z,997.4
2019-01-28T10:59:03.083Z,997.4
2019-01-28T11:00:03.516Z,997.4
2019-01-28T11:01:03.501Z,997.4
2019-01-28T11:02:03.161Z,997.4
2019-01-28T11:03:02.958Z,997.4
2019-01-28T11:04:03.089Z,997.5
2019-01-28T11:05:03.850Z,997.6
2019-01-28T11:06:03.293Z,997.4
2019-01-28T11:07:03.309Z,997.3
2019-01-28T11:08:03.668Z,997.5
2019-01-28T11:09:03.632Z,997.6
2019-01-28T11:10:03.847Z,997.5
2019-01-28T11:11:04.219Z,997.4
2019-01-28T11:12:03.737Z,997.5
2019-01-28T11:13:05.533Z,997.4
2019-01-28T11:14:03.355Z,997.4
2019-01-28T11:15:03.665Z,997.4
2019-01-28T11:16:03.604Z,997.4
2019-01-28T11:17:02.998Z,997.4
2019-01-28T11:18:02.997Z,997.5
2019-01-28T11:19:04.182Z,997.4
2019-01-28T11:20:04.170Z,997.4
2019-01-28T11:21:03.503Z,997.5
2019-01-28T11:22:04.261Z,997.3
2019-01-28T11:23:03.104Z,997.3
2019-01-28T11:24:04.284Z,997.3
2019-01-28T11:25:04.029Z,997.4
2019-01-28T11:26:03.496Z,997.3
2019-01-28T11:27:03.765Z,997.3
2019-01-28T11:28:03.748Z,997.3
2019-01-28T11:29:03.147Z,997.3
2019-01-28T11:30:02.669Z,997.3
2019-01-28T11:31:03.555Z,997.3
2019-01-28T11:32:04.147Z,997.3
2019-01-28T11:33:03.759Z,997.3
2019-01-28T11:34:03.453Z,997.3
2019-01-28T11:35:03.547Z,997.2
2019-01-28T11:36:06.265Z,997.2
2019-01-28T11:37:04.320Z,997.3
2019-01-28T11:38:03.475Z,997.1
2019-01-28T11:39:03.784Z,997.3
2019-01-28T11:40:03.837Z,997.3
2019-01-28T11:41:04.009Z,997.3
2019-01-28T11:42:04.136Z,997.3
2019-01-28T11:43:04.128Z,997.3
2019-01-28T11:44:03.489Z,997.3
2019-01-28T11:45:03.401Z,997.4
2019-01-28T11:46:03.955Z,997.3
2019-01-28T11:47:03.347Z,997.2
2019-01-28T11:48:03.276Z,997.2
2019-01-28T11:49:06.729Z,997.3
2019-01-28T11:50:04.387Z,997.3
2019-01-28T11:51:03.245Z,997.3
2019-01-28T11:52:03.102Z,997.3
2019-01-28T11:53:03.958Z,997.4
2019-01-28T11:54:03.714Z,997.3
2019-01-28T11:55:03.555Z,997.3
2019-01-28T11:56:03.193Z,997.3
2019-01-28T11:57:03.597Z,997.3
2019-01-28T11:58:02.878Z,997.3
2019-01-28T11:59:02.604Z,997.3
2019-01-28T12:00:03.579Z,997.3
2019-01-28T12:01:02.992Z,997.3
2019-01-28T12:02:03.163Z,997.4
2019-01-28T12:03:03.227Z,997.3
2019-01-28T12:04:03.136Z,997.3
2019-01-28T12:05:03.968Z,997.3
2019-01-28T12:06:03.585Z,997.3
2019-01-28T12:07:03.300Z,997.3
2019-01-28T12:08:02.921Z,997.2
2019-01-28T12:09:03.663Z,997.2
2019-01-28T12:10:03.904Z,997.2
2019-01-28T12:11:03.093Z,997.3
2019-01-28T12:12:03.160Z,997.2
2019-01-28T12:13:03.647Z,997.2
2019-01-28T12:14:03.238Z,997.3
2019-01-28T12:15:03.144Z,997.3
2019-01-28T12:16:03.727Z,997.2
2019-01-28T12:17:03.573Z,997.2
2019-01-28T12:18:03.154Z,997.3
2019-01-28T12:19:03.500Z,997.2
2019-01-28T12:20:03.859Z,997.2
2019-01-28T12:21:03.278Z,997.3
2019-01-28T12:22:03.039Z,997.3
2019-01-28T12:23:03.187Z,997.3
2019-01-28T12:24:03.037Z,997.3
2019-01-28T12:25:03.577Z,997.4
2019-01-28T12:26:03.834Z,997.4
2019-01-28T12:27:03.822Z,997.4
2019-01-28T12:28:03.075Z,997.4
2019-01-28T12:29:03.967Z,997.4
2019-01-28T12:30:03.304Z,997.3
2019-01-28T12:31:03.749Z,997.4
2019-01-28T12:32:03.163Z,997.3
2019-01-28T12:33:03.588Z,997.3
2019-01-28T12:34:03.211Z,997.3
2019-01-28T12:35:03.217Z,997.4
2019-01-28T12:36:03.226Z,997.4
2019-01-28T12:37:02.941Z,997.3
2019-01-28T12:38:03.175Z,997.3
2019-01-28T12:39:03.635Z,997.4
2019-01-28T12:40:02.919Z,997.3
2019-01-28T12:41:03.599Z,997.4
2019-01-28T12:42:03.238Z,997.4
2019-01-28T12:43:03.486Z,997.4
2019-01-28T12:44:03.514Z,997.4
2019-01-28T12:45:03.563Z,997.3
2019-01-28T12:46:03.906Z,997.3
2019-01-28T12:47:03.526Z,997.4
2019-01-28T12:48:03.448Z,997.3
2019-01-28T12:49:03.788Z,997.4
2019-01-28T12:50:03.129Z,997.4
2019-01-28T12:51:03.117Z,997.4
2019-01-28T12:52:03.279Z,997.5
2019-01-28T12:53:03.899Z,997.5
2019-01-28T12:54:03.138Z,997.5